Time;durP1;ratioP1;P1;durP2;ratioP2;P2;SDS_P1;SDS_P2;PMS_P1;PMS_P2;Temp;Humidity;BMP_temperature;BMP_pressure;BME280_temperature;BME280_humidity;BME280_pressure;Samples;Min_cycle;Max_cycle;Signal;HPM_P1;HPM_P2
2022/10/23 00:09:44;;;;;;;5.00;1.55;;;;;;;12.95;100.00;99100.81;4922534;28;20053;-92
2022/10/23 00:13:32;;;;;;;7.35;1.42;;;;;;;12.91;100.00;99092.41;4992706;28;20042;-92
2022/10/23 00:16:32;;;;;;;6.90;1.02;;;;;;;12.88;100.00;99098.91;4960835;28;20042;-93
2022/10/23 00:19:38;;;;;;;2.90;0.75;;;;;;;12.82;100.00;99089.06;4977654;28;20042;-93
2022/10/23 00:22:53;;;;;;;;;;;;;;;;;;;;;
2022/10/23 00:25:44;;;;;;;6.65;1.00;;;;;;;12.86;100.00;99093.00;4988256;28;20121;-94
2022/10/23 00:28:37;;;;;;;5.20;1.27;;;;;;;12.86;100.00;99090.34;4979254;28;20390;-91
2022/10/23 00:31:05;;;;;;;3.58;0.80;;;;;;;12.83;100.00;99093.38;4945583;28;20066;-92
2022/10/23 00:33:44;;;;;;;3.45;1.10;;;;;;;12.87;100.00;99088.47;4977572;28;20045;-92
2022/10/23 00:36:43;;;;;;;3.50;0.70;;;;;;;12.76;100.00;99080.06;4985738;28;20098;-91
2022/10/23 00:39:30;;;;;;;1.35;0.60;;;;;;;12.80;100.00;99093.75;4947805;28;20035;-92
2022/10/23 00:42:17;;;;;;;8.02;0.47;;;;;;;12.81;100.00;99090.09;4971063;28;20062;-93
2022/10/23 00:44:49;;;;;;;3.42;0.50;;;;;;;12.82;100.00;99086.41;4991537;28;20129;-94
2022/10/23 00:47:18;;;;;;;4.57;0.30;;;;;;;12.84;100.00;99073.78;4978416;28;20038;-94
2022/10/23 00:49:46;;;;;;;3.40;0.30;;;;;;;12.85;100.00;99074.63;4974691;28;20055;-91
2022/10/23 00:52:14;;;;;;;1.20;0.35;;;;;;;12.87;100.00;99073.41;4985879;28;20039;-91
2022/10/23 00:54:43;;;;;;;3.47;0.50;;;;;;;12.88;100.00;99067.06;4998118;28;20129;-95
2022/10/23 00:57:15;;;;;;;1.48;0.30;;;;;;;12.98;100.00;99071.25;4945895;28;20056;-91
2022/10/23 00:59:44;;;;;;;2.88;0.40;;;;;;;12.93;100.00;99071.81;4966016;28;20041;-92
2022/10/23 01:02:12;;;;;;;1.15;0.25;;;;;;;12.93;100.00;99071.81;4957412;28;20042;-94
2022/10/23 01:04:41;;;;;;;1.50;0.47;;;;;;;12.98;100.00;99072.03;4983308;28;20070;-94
2022/10/23 01:07:22;;;;;;;0.93;0.30;;;;;;;13.02;100.00;99064.53;4977442;28;20046;-94
2022/10/23 01:10:33;;;;;;;1.10;0.30;;;;;;;13.00;100.00;99071.84;4975078;28;20030;-93
2022/10/23 01:16:48;;;;;;;0.80;0.20;;;;;;;12.99;100.00;99059.63;4990837;28;20049;-94
2022/10/23 01:19:37;;;;;;;1.00;0.20;;;;;;;13.03;100.00;99058.19;4975735;28;20093;-93
2022/10/23 01:22:27;;;;;;;1.60;0.30;;;;;;;13.02;100.00;99051.25;4992283;28;20482;-93
2022/10/23 01:25:06;;;;;;;2.15;0.30;;;;;;;13.03;100.00;99053.72;4978668;28;20042;-93
2022/10/23 01:27:42;;;;;;;2.17;0.30;;;;;;;13.05;100.00;99047.38;4974290;28;20058;-94
2022/10/23 01:30:16;;;;;;;2.28;0.43;;;;;;;13.08;100.00;99050.47;4984271;28;20081;-94
2022/10/23 01:33:05;;;;;;;1.77;0.50;;;;;;;13.14;100.00;99048.88;4959825;28;20490;-94
2022/10/23 01:35:50;;;;;;;1.65;0.47;;;;;;;13.15;100.00;99045.22;4971354;28;20066;-93
2022/10/23 01:38:32;;;;;;;2.10;0.20;;;;;;;13.18;100.00;99038.69;5001238;28;20128;-94
2022/10/23 01:41:27;;;;;;;0.45;0.20;;;;;;;13.20;100.00;99034.03;4987848;28;20034;-93
2022/10/23 01:44:24;;;;;;;0.98;0.20;;;;;;;13.19;100.00;99025.22;4986651;28;20130;-93
2022/10/23 01:46:56;;;;;;;2.33;0.17;;;;;;;13.17;100.00;99013.19;5026688;28;20042;-94
2022/10/23 01:49:28;;;;;;;0.85;0.20;;;;;;;13.19;100.00;99011.97;4996380;28;20038;-93
2022/10/23 01:52:02;;;;;;;5.28;0.40;;;;;;;13.21;100.00;99001.97;5017665;28;20497;-93
2022/10/23 01:54:37;;;;;;;2.15;0.40;;;;;;;13.20;100.00;99000.34;4999656;28;20038;-94
2022/10/23 01:57:10;;;;;;;3.53;0.82;;;;;;;13.23;100.00;98994.66;5028805;28;20064;-93
2022/10/23 01:59:53;;;;;;;3.25;0.40;;;;;;;13.24;100.00;98985.66;5000080;28;20041;-93
2022/10/23 02:02:27;;;;;;;1.15;0.25;;;;;;;13.23;100.00;98989.34;4993270;28;20038;-93
2022/10/23 02:05:06;;;;;;;2.15;0.20;;;;;;;13.23;100.00;98992.00;5038673;28;20474;-94
2022/10/23 02:07:35;;;;;;;1.05;0.30;;;;;;;13.26;100.00;98988.94;5006043;28;20096;-94
2022/10/23 02:10:06;;;;;;;3.05;0.40;;;;;;;13.25;100.00;98973.22;4970223;28;20111;-94
2022/10/23 02:12:44;;;;;;;3.20;0.40;;;;;;;13.27;100.00;98979.97;4989825;28;20157;-94
2022/10/23 02:15:20;;;;;;;1.27;0.50;;;;;;;13.29;100.00;98977.09;5012352;28;20038;-94
2022/10/23 02:18:06;;;;;;;4.78;0.65;;;;;;;13.26;100.00;98969.53;4994955;28;20034;-94
2022/10/23 02:20:40;;;;;;;0.93;0.38;;;;;;;13.23;100.00;98960.16;4993341;28;20053;-94
2022/10/23 02:23:26;;;;;;;3.30;0.60;;;;;;;13.23;100.00;98954.84;5009696;28;20485;-94
2022/10/23 02:26:03;;;;;;;2.00;0.50;;;;;;;13.26;100.00;98958.94;5013117;28;20504;-94
2022/10/23 02:28:45;;;;;;;3.90;0.50;;;;;;;13.23;100.00;98946.06;5011617;28;20038;-95
2022/10/23 02:31:19;;;;;;;5.22;0.50;;;;;;;13.21;100.00;98948.09;4991257;28;20054;-95
2022/10/23 02:33:49;;;;;;;6.70;1.75;;;;;;;13.23;100.00;98948.72;5002917;28;20534;-94
2022/10/23 02:36:19;;;;;;;5.25;0.70;;;;;;;13.18;100.00;98941.34;5012484;28;20106;-93
2022/10/23 02:38:47;;;;;;;4.40;0.70;;;;;;;13.21;100.00;98940.97;4995463;28;20038;-93
2022/10/23 02:41:33;;;;;;;3.38;0.93;;;;;;;13.23;100.00;98938.94;4977805;28;20038;-93
2022/10/23 02:44:19;;;;;;;7.38;0.90;;;;;;;13.23;100.00;98933.63;4983223;28;20054;-93
2022/10/23 02:47:12;;;;;;;3.67;1.25;;;;;;;13.21;100.00;98926.88;4971491;28;20102;-93
2022/10/23 02:50:10;;;;;;;6.47;0.90;;;;;;;13.23;100.00;98930.16;4994146;28;20034;-93
2022/10/23 02:52:55;;;;;;;5.63;0.70;;;;;;;13.21;100.00;98922.38;5024327;28;20045;-94
2022/10/23 02:55:34;;;;;;;4.88;0.88;;;;;;;13.23;100.00;98911.56;4986493;28;20545;-93
2022/10/23 02:58:23;;;;;;;9.55;0.75;;;;;;;13.21;100.00;98901.16;4980787;28;20056;-93
2022/10/23 03:01:02;;;;;;;6.88;1.05;;;;;;;13.18;100.00;98895.44;4995822;28;20114;-93
2022/10/23 03:03:37;;;;;;;7.57;0.73;;;;;;;13.19;100.00;98895.22;5000362;28;20034;-92
2022/10/23 03:06:06;;;;;;;8.77;0.98;;;;;;;13.17;100.00;98888.50;4978657;28;20034;-91
2022/10/23 03:08:51;;;;;;;5.72;0.77;;;;;;;13.12;100.00;98876.63;5004697;28;20041;-92
2022/10/23 03:11:19;;;;;;;4.53;0.60;;;;;;;13.15;100.00;98888.69;4987491;28;20034;-92
2022/10/23 03:13:49;;;;;;;3.22;0.73;;;;;;;13.11;100.00;98880.31;4991223;28;20068;-92
2022/10/23 03:16:18;;;;;;;5.30;0.75;;;;;;;13.12;100.00;98876.63;5025288;28;20479;-92
2022/10/23 03:18:51;;;;;;;4.03;0.70;;;;;;;13.06;100.00;98872.13;5004197;28;20125;-92
2022/10/23 03:21:20;;;;;;;6.20;1.00;;;;;;;13.07;100.00;98865.00;4992303;28;20051;-92
2022/10/23 03:23:52;;;;;;;7.55;0.70;;;;;;;13.04;100.00;98866.22;5006884;28;20113;-92
2022/10/23 03:26:27;;;;;;;4.00;0.75;;;;;;;13.05;100.00;98857.25;4961985;28;20505;-92
2022/10/23 03:28:56;;;;;;;6.25;0.70;;;;;;;13.06;100.00;98861.53;4997052;28;20030;-92
2022/10/23 03:31:24;;;;;;;6.85;0.90;;;;;;;13.03;100.00;98846.84;4981421;28;20478;-92
2022/10/23 03:33:56;;;;;;;5.45;1.30;;;;;;;13.06;100.00;98847.47;5002983;28;20042;-92
2022/10/23 03:36:24;;;;;;;5.90;1.20;;;;;;;13.01;100.00;98840.91;4978149;28;20402;-91
2022/10/23 03:38:58;;;;;;;1.80;0.90;;;;;;;13.03;100.00;98832.75;4991634;28;20041;-91
2022/10/23 03:41:28;;;;;;;3.38;1.58;;;;;;;13.00;100.00;98826.03;4979647;28;20502;-91
2022/10/23 03:43:58;;;;;;;2.95;1.10;;;;;;;12.97;100.00;98822.94;5007552;28;20133;-91
2022/10/23 03:46:28;;;;;;;3.47;1.05;;;;;;;12.97;100.00;98814.97;4991205;28;20052;-91
2022/10/23 03:48:58;;;;;;;5.13;1.42;;;;;;;12.96;100.00;98811.53;4995904;28;20041;-91
2022/10/23 03:51:27;;;;;;;8.73;1.42;;;;;;;12.95;100.00;98817.03;4991365;28;20053;-92
2022/10/23 03:53:57;;;;;;;5.50;1.20;;;;;;;12.88;100.00;98803.75;4979317;28;20053;-91
2022/10/23 03:56:26;;;;;;;2.85;0.98;;;;;;;12.91;100.00;98800.69;4975435;28;20667;-92
2022/10/23 03:58:54;;;;;;;4.50;1.20;;;;;;;12.93;100.00;98811.94;5015837;28;20495;-91
2022/10/23 04:01:25;;;;;;;3.15;1.30;;;;;;;12.91;100.00;98795.41;4997915;28;20045;-92
2022/10/23 04:03:53;;;;;;;2.90;1.10;;;;;;;12.91;100.00;98798.06;4994104;28;20034;-92
2022/10/23 04:06:24;;;;;;;3.33;1.02;;;;;;;12.89;100.00;98800.06;5043009;28;20153;-90
2022/10/23 04:08:56;;;;;;;3.97;0.93;;;;;;;12.86;100.00;98796.00;4996447;28;20037;-89
2022/10/23 04:11:24;;;;;;;4.10;1.15;;;;;;;12.87;100.00;98788.84;5025991;28;20029;-92
2022/10/23 04:13:52;;;;;;;3.47;0.80;;;;;;;12.80;100.00;98788.84;5045920;28;20124;-91
2022/10/23 04:16:20;;;;;;;2.10;0.82;;;;;;;12.85;100.00;98791.69;4996687;28;20142;-91
2022/10/23 04:18:49;;;;;;;3.38;1.08;;;;;;;12.83;100.00;98777.03;4995346;28;20030;-91
2022/10/23 04:21:17;;;;;;;3.83;1.48;;;;;;;12.85;100.00;98777.66;4982800;28;20048;-91
2022/10/23 04:23:47;;;;;;;2.42;1.15;;;;;;;12.81;100.00;98765.78;4997795;28;20133;-91
2022/10/23 04:26:18;;;;;;;2.33;0.90;;;;;;;12.80;100.00;98757.03;5033185;28;20083;-90
2022/10/23 04:28:46;;;;;;;4.88;1.25;;;;;;;12.80;100.00;98753.56;4997381;28;20034;-91
2022/10/23 04:31:16;;;;;;;2.85;1.38;;;;;;;12.86;100.00;98766.84;4994873;28;20785;-92
2022/10/23 04:33:46;;;;;;;5.47;1.33;;;;;;;12.88;100.00;98753.38;4983570;28;20474;-92
2022/10/23 04:36:28;;;;;;;3.22;1.33;;;;;;;12.88;100.00;98750.72;5001422;28;20034;-92
2022/10/23 04:38:58;;;;;;;6.85;1.23;;;;;;;12.85;100.00;98751.94;4993480;28;20084;-92
2022/10/23 04:41:29;;;;;;;6.78;1.30;;;;;;;12.91;100.00;98747.66;4972080;28;20034;-92
2022/10/23 04:43:58;;;;;;;6.55;1.55;;;;;;;12.91;100.00;98745.03;4988739;28;20503;-91
2022/10/23 04:46:27;;;;;;;6.05;1.52;;;;;;;12.93;100.00;98737.69;4983516;28;20035;-91
2022/10/23 04:48:55;;;;;;;4.03;1.25;;;;;;;12.92;100.00;98735.22;4978323;28;20030;-92
2022/10/23 04:51:42;;;;;;;6.30;1.80;;;;;;;12.99;100.00;98755.44;4990842;28;20034;-92
2022/10/23 04:54:36;;;;;;;8.20;1.70;;;;;;;13.00;100.00;98754.41;4939672;28;20085;-92
2022/10/23 04:57:37;;;;;;;4.20;1.48;;;;;;;13.00;100.00;98738.50;4964015;28;20138;-91
2022/10/23 05:00:13;;;;;;;16.38;2.00;;;;;;;13.02;100.00;98733.81;4994726;28;20031;-91
2022/10/23 05:02:48;;;;;;;3.40;1.77;;;;;;;13.03;100.00;98719.53;4958791;28;20043;-92
2022/10/23 05:05:17;;;;;;;6.70;1.40;;;;;;;12.98;100.00;98699.94;4975827;28;20046;-92
2022/10/23 05:08:04;;;;;;;9.45;2.05;;;;;;;12.94;100.00;98702.19;5006646;28;20040;-91
2022/10/23 05:10:52;;;;;;;8.90;1.80;;;;;;;12.90;100.00;98682.38;4976553;28;20053;-93
2022/10/23 05:13:21;;;;;;;15.13;2.03;;;;;;;12.88;100.00;98664.03;4970450;28;20040;-91
2022/10/23 05:15:52;;;;;;;9.48;2.15;;;;;;;12.97;100.00;98663.81;4988069;28;20027;-91
2022/10/23 05:18:31;;;;;;;8.20;2.08;;;;;;;12.95;100.00;98661.38;4977197;28;20045;-91
2022/10/23 05:21:08;;;;;;;11.90;2.08;;;;;;;12.96;100.00;98670.16;4953854;28;20053;-91
2022/10/23 05:23:44;;;;;;;8.05;2.20;;;;;;;13.00;100.00;98672.19;4967311;28;20034;-91
2022/10/23 05:26:13;;;;;;;12.55;2.20;;;;;;;12.97;100.00;98661.16;4986346;28;20034;-90
2022/10/23 05:28:42;;;;;;;9.80;1.98;;;;;;;12.99;100.00;98683.84;4961693;28;20046;-91
2022/10/23 05:31:14;;;;;;;8.45;1.95;;;;;;;13.06;100.00;98672.41;5013181;28;20037;-91
2022/10/23 05:33:45;;;;;;;11.52;2.03;;;;;;;13.05;100.00;98662.81;4976643;28;20129;-91
2022/10/23 05:36:15;;;;;;;10.90;1.85;;;;;;;13.09;100.00;98680.75;5002775;28;20474;-91
2022/10/23 05:38:45;;;;;;;7.90;2.03;;;;;;;13.08;100.00;98681.78;4964179;28;20022;-91
2022/10/23 05:41:18;;;;;;;9.23;1.73;;;;;;;13.05;100.00;98660.16;5022354;28;20039;-92
2022/10/23 05:43:48;;;;;;;8.70;1.58;;;;;;;13.08;100.00;98657.09;5013863;28;20041;-91
2022/10/23 05:46:40;;;;;;;5.07;1.30;;;;;;;13.07;100.00;98656.28;5033524;28;20045;-90
2022/10/23 05:49:18;;;;;;;6.80;1.40;;;;;;;13.07;100.00;98647.50;5048899;28;20039;-90
2022/10/23 05:52:18;;;;;;;6.45;1.27;;;;;;;13.08;100.00;98642.00;4981200;28;20042;-93
2022/10/23 05:55:00;;;;;;;5.55;1.13;;;;;;;13.06;100.00;98632.63;5018977;28;20128;-93
2022/10/23 05:57:49;;;;;;;6.07;0.95;;;;;;;13.08;100.00;98636.69;5022865;28;20045;-93
2022/10/23 06:00:24;;;;;;;1.98;0.70;;;;;;;13.06;100.00;98635.28;5011515;28;20033;-92
2022/10/23 06:03:10;;;;;;;3.25;0.90;;;;;;;13.16;100.00;98648.91;5031891;28;20044;-92
2022/10/23 06:05:49;;;;;;;7.40;1.30;;;;;;;13.20;100.00;98652.81;5043390;28;20034;-93
2022/10/23 06:08:23;;;;;;;4.55;1.23;;;;;;;13.22;100.00;98658.72;5064468;28;20543;-91
2022/10/23 06:10:51;;;;;;;6.03;1.45;;;;;;;13.25;100.00;98649.53;5017387;28;20037;-91
2022/10/23 06:13:20;;;;;;;3.42;1.00;;;;;;;13.27;100.00;98636.88;5011227;28;20038;-92
2022/10/23 06:15:48;;;;;;;12.50;1.80;;;;;;;13.32;100.00;98642.38;4997242;28;20029;-90
2022/10/23 06:18:20;;;;;;;6.78;1.23;;;;;;;13.34;100.00;98628.91;5029794;28;20053;-91
2022/10/23 06:20:55;;;;;;;3.67;0.85;;;;;;;13.33;100.00;98629.94;5014850;28;20033;-91
2022/10/23 06:23:29;;;;;;;8.98;1.48;;;;;;;13.32;100.00;98609.72;5006220;28;20069;-91
2022/10/23 06:26:18;;;;;;;8.52;1.10;;;;;;;13.27;100.00;98611.16;5027646;28;20095;-91
2022/10/23 06:29:18;;;;;;;11.65;1.20;;;;;;;13.25;100.00;98617.69;5007209;28;20116;-91
2022/10/23 06:31:48;;;;;;;9.45;1.40;;;;;;;13.24;100.00;98606.25;5014247;28;20049;-92
2022/10/23 06:34:16;;;;;;;12.50;2.00;;;;;;;13.25;100.00;98601.78;5014779;28;20044;-91
2022/10/23 06:36:48;;;;;;;18.73;2.15;;;;;;;13.24;100.00;98595.66;5003845;28;20041;-91
2022/10/23 06:39:43;;;;;;;9.98;2.13;;;;;;;13.20;100.00;98590.97;5004652;28;20060;-90
2022/10/23 06:42:26;;;;;;;11.98;2.47;;;;;;;13.19;100.00;98592.81;5024714;28;20501;-90
2022/10/23 06:44:57;;;;;;;7.78;2.05;;;;;;;13.23;100.00;98585.25;5034969;28;20413;-93
2022/10/23 06:47:44;;;;;;;13.18;2.25;;;;;;;13.25;100.00;98588.53;5031636;28;20037;-91
2022/10/23 06:50:30;;;;;;;;;;;;;;;13.14;100.00;98569.53;5027827;28;20079;-93
2022/10/23 06:53:05;;;;;;;8.30;2.17;;;;;;;13.19;100.00;98573.41;5046002;28;19917;-92
2022/10/23 06:55:35;;;;;;;26.40;3.33;;;;;;;13.19;100.00;98568.09;5015561;28;20033;-92
2022/10/23 06:58:09;;;;;;;11.40;2.83;;;;;;;13.22;100.00;98567.72;5020261;28;20060;-91
2022/10/23 07:00:47;;;;;;;23.20;3.00;;;;;;;13.17;100.00;98563.00;5005857;28;20042;-92
2022/10/23 07:03:17;;;;;;;10.98;2.95;;;;;;;13.23;100.00;98582.59;5000738;28;20038;-92
2022/10/23 07:05:46;;;;;;;9.43;2.50;;;;;;;13.16;100.00;98569.34;5007753;28;20041;-92
2022/10/23 07:08:17;;;;;;;13.05;3.05;;;;;;;13.22;100.00;98568.50;5018927;28;20033;-91
2022/10/23 07:10:49;;;;;;;8.20;2.55;;;;;;;13.16;100.00;98556.06;5014066;28;20040;-92
2022/10/23 07:13:21;;;;;;;13.07;3.35;;;;;;;13.15;100.00;98552.59;5008882;28;20037;-92
2022/10/23 07:16:16;;;;;;;15.27;3.25;;;;;;;13.21;100.00;98547.50;5029767;28;20034;-90
2022/10/23 07:18:46;;;;;;;11.20;3.78;;;;;;;13.11;100.00;98529.34;5019127;28;20030;-92
2022/10/23 07:21:38;;;;;;;23.55;3.65;;;;;;;13.11;100.00;98538.13;4981121;28;20088;-92
2022/10/23 07:24:35;;;;;;;12.13;3.17;;;;;;;13.12;100.00;98529.16;5014578;28;20080;-92
2022/10/23 07:27:07;;;;;;;11.73;3.47;;;;;;;13.14;100.00;98543.03;4997228;28;20093;-92
2022/10/23 07:29:37;;;;;;;15.88;3.78;;;;;;;13.15;100.00;98535.88;5000839;28;20061;-93
2022/10/23 07:32:05;;;;;;;22.67;3.67;;;;;;;13.07;100.00;98523.66;5005419;28;20033;-93
2022/10/23 07:34:50;;;;;;;17.10;3.47;;;;;;;13.04;100.00;98521.44;5032465;28;20037;-92
2022/10/23 07:37:38;;;;;;;11.50;3.03;;;;;;;13.02;100.00;98521.66;5002538;28;20056;-93
2022/10/23 07:40:07;;;;;;;14.25;4.00;;;;;;;13.01;100.00;98517.34;4998251;28;20030;-93
2022/10/23 07:42:44;;;;;;;9.70;3.10;;;;;;;12.97;100.00;98524.09;5009300;28;20184;-92
2022/10/23 07:45:16;;;;;;;6.43;3.22;;;;;;;12.95;100.00;98523.47;4993122;28;20042;-93
2022/10/23 07:47:50;;;;;;;8.55;3.20;;;;;;;12.94;100.00;98516.56;4998451;28;20067;-92
2022/10/23 07:50:22;;;;;;;4.50;2.90;;;;;;;12.95;100.00;98514.72;4984688;28;20042;-93
2022/10/23 07:52:52;;;;;;;9.02;3.20;;;;;;;12.94;100.00;98511.25;5001033;28;20044;-93
2022/10/23 07:55:31;;;;;;;6.32;2.38;;;;;;;12.92;100.00;98497.38;5008579;28;20045;-93
2022/10/23 07:58:08;;;;;;;9.02;3.05;;;;;;;12.93;100.00;98504.34;4991880;28;20512;-93
2022/10/23 08:00:50;;;;;;;10.15;2.65;;;;;;;12.96;100.00;98511.88;5011143;28;20180;-92
2022/10/23 08:03:30;;;;;;;8.70;2.83;;;;;;;12.97;100.00;98520.63;4996063;28;20049;-92
2022/10/23 08:06:00;;;;;;;7.53;3.97;;;;;;;13.00;100.00;98531.63;4991864;28;20124;-92
2022/10/23 08:08:29;;;;;;;5.10;3.47;;;;;;;13.05;100.00;98548.75;4990890;28;20471;-92
2022/10/23 08:11:01;;;;;;;5.72;2.88;;;;;;;12.98;100.00;98546.94;4975287;28;20124;-91
2022/10/23 08:13:36;;;;;;;1.77;1.08;;;;;;;13.01;100.00;98538.56;4993203;28;20069;-91
2022/10/23 08:16:06;;;;;;;4.10;0.80;;;;;;;13.00;100.00;98544.91;5000103;28;20068;-92
2022/10/23 08:18:53;;;;;;;6.50;1.30;;;;;;;13.02;100.00;98545.50;4973209;28;20030;-93
2022/10/23 08:21:21;;;;;;;0.77;0.68;;;;;;;13.00;100.00;98542.25;4998746;28;20045;-92
2022/10/23 08:23:53;;;;;;;1.70;0.57;;;;;;;12.90;100.00;98545.31;4998395;28;20031;-92
2022/10/23 08:26:24;;;;;;;1.25;0.40;;;;;;;12.84;100.00;98543.50;5019858;28;20046;-93
2022/10/23 08:28:53;;;;;;;0.90;0.63;;;;;;;12.84;100.00;98556.75;4966635;28;20092;-95
2022/10/23 08:31:23;;;;;;;2.92;0.50;;;;;;;12.87;100.00;98556.34;4996822;28;20033;-93
2022/10/23 08:34:27;;;;;;;1.27;0.40;;;;;;;12.93;100.00;98551.25;4971700;28;20120;-95
2022/10/23 08:36:57;;;;;;;2.55;0.50;;;;;;;12.99;100.00;98545.94;4968605;28;20041;-95
2022/10/23 08:39:25;;;;;;;3.20;0.52;;;;;;;13.01;100.00;98546.53;4999396;28;20073;-93
2022/10/23 08:42:41;;;;;;;;;;;;;;;;;;;;;
2022/10/23 08:53:11;;;;;;;2.40;0.50;;;;;;;12.91;100.00;98554.09;5011206;28;20075;-93
2022/10/23 08:55:59;;;;;;;1.10;0.30;;;;;;;12.97;100.00;98558.56;4990897;28;20046;-91
2022/10/23 08:58:40;;;;;;;2.30;0.35;;;;;;;13.00;100.00;98550.19;5024105;28;20045;-91
2022/10/23 09:01:26;;;;;;;0.73;0.35;;;;;;;13.03;100.00;98546.31;5031915;28;20123;-90
2022/10/23 09:04:00;;;;;;;2.25;0.50;;;;;;;13.06;100.00;98539.78;5004084;28;20037;-90
2022/10/23 09:06:41;;;;;;;0.50;0.50;;;;;;;13.12;100.00;98536.31;5020903;28;20041;-91
2022/10/23 09:09:38;;;;;;;1.50;0.20;;;;;;;13.11;100.00;98529.34;5048066;28;20477;-92
2022/10/23 09:12:20;;;;;;;0.55;0.17;;;;;;;13.12;100.00;98515.88;5033035;28;20509;-92
2022/10/23 09:15:16;;;;;;;1.30;0.20;;;;;;;13.12;100.00;98513.22;4980632;28;20045;-91
2022/10/23 09:17:46;;;;;;;0.57;0.20;;;;;;;13.11;100.00;98524.88;5049162;28;20033;-92
2022/10/23 09:20:28;;;;;;;1.70;0.40;;;;;;;13.14;100.00;98529.75;5032934;28;20021;-92
2022/10/23 09:23:06;;;;;;;3.10;0.40;;;;;;;13.19;100.00;98529.13;5033059;28;20041;-92
2022/10/23 09:25:55;;;;;;;0.93;0.13;;;;;;;13.30;100.00;98514.41;4983317;28;20037;-91
2022/10/23 09:28:32;;;;;;;0.80;0.25;;;;;;;13.50;100.00;98513.50;5044483;28;20033;-92
2022/10/23 09:31:10;;;;;;;1.08;0.25;;;;;;;13.54;100.00;98508.63;4997498;28;20478;-91
2022/10/23 09:33:41;;;;;;;0.77;0.20;;;;;;;13.57;100.00;98498.38;5001604;28;20037;-90
2022/10/23 09:36:59;;;;;;;0.28;0.25;;;;;;;13.56;100.00;98493.28;5048479;28;20037;-92
2022/10/23 09:39:39;;;;;;;2.60;0.43;;;;;;;13.54;100.00;98496.16;5043647;28;20382;-91
2022/10/23 09:42:25;;;;;;;0.68;0.40;;;;;;;13.62;100.00;98490.59;5004357;28;20030;-89
2022/10/23 09:45:20;;;;;;;2.83;0.45;;;;;;;13.80;100.00;98496.22;5006162;28;20495;-91
2022/10/23 09:48:45;;;;;;;3.30;0.30;;;;;;;13.82;100.00;98481.72;4979767;28;20094;-88
2022/10/23 09:52:42;;;;;;;1.60;0.28;;;;;;;13.78;100.00;98491.13;4910337;29;20092;-89
2022/10/23 09:56:12;;;;;;;1.58;0.40;;;;;;;13.81;100.00;98484.59;4928938;29;20115;-89
2022/10/23 10:00:11;;;;;;;0.30;0.10;;;;;;;13.88;100.00;98491.47;4925270;29;20094;-89
2022/10/23 10:03:51;;;;;;;0.70;0.25;;;;;;;13.98;100.00;98488.34;4919865;29;20043;-89
2022/10/23 10:08:13;;;;;;;0.30;0.10;;;;;;;13.94;100.00;98488.97;4902614;29;20053;-89
2022/10/23 10:11:34;;;;;;;1.45;0.20;;;;;;;13.93;100.00;98482.88;4917520;29;20071;-90
2022/10/23 10:14:29;;;;;;;0.45;0.10;;;;;;;14.05;100.00;98487.50;4915077;29;20040;-91
2022/10/23 10:17:34;;;;;;;1.95;0.20;;;;;;;14.14;100.00;98486.19;5008299;28;20040;-91
2022/10/23 10:20:31;;;;;;;1.75;0.20;;;;;;;14.20;100.00;98479.19;5026822;28;20038;-90
2022/10/23 10:23:56;;;;;;;2.42;0.28;;;;;;;14.25;100.00;98482.03;4992034;28;20037;-91
2022/10/23 10:26:39;;;;;;;0.60;0.20;;;;;;;14.20;100.00;98479.19;4902840;28;20046;-92
2022/10/23 10:29:53;;;;;;;0.77;0.20;;;;;;;14.12;100.00;98465.16;4919782;29;20540;-91
2022/10/23 10:32:54;;;;;;;1.67;0.20;;;;;;;14.10;100.00;98469.03;4987701;28;20042;-90
2022/10/23 10:35:49;;;;;;;0.88;0.17;;;;;;;14.16;100.00;98478.81;4986749;28;20042;-91
2022/10/23 10:38:54;;;;;;;1.33;0.20;;;;;;;14.25;100.00;98477.50;4990441;28;20475;-91
2022/10/23 10:41:30;;;;;;;2.05;0.15;;;;;;;14.33;100.00;98481.75;4960709;28;20132;-92
2022/10/23 10:44:46;;;;;;;0.60;0.17;;;;;;;14.32;100.00;98468.66;5011670;28;20050;-91
2022/10/23 10:47:29;;;;;;;0.95;0.10;;;;;;;14.30;100.00;98471.53;5039613;28;20030;-92
2022/10/23 10:50:20;;;;;;;2.65;1.00;;;;;;;14.31;100.00;98470.53;4978679;28;20046;-94
2022/10/23 10:53:25;;;;;;;1.30;0.22;;;;;;;14.25;100.00;98466.88;4990570;28;20041;-92
2022/10/23 10:56:02;;;;;;;2.25;0.20;;;;;;;14.24;100.00;98465.25;5004610;28;20176;-93
2022/10/23 10:58:51;;;;;;;0.30;0.25;;;;;;;14.34;100.00;98455.97;5017693;28;20580;-93
2022/10/23 11:01:28;;;;;;;1.10;0.57;;;;;;;14.50;100.00;98450.09;4974880;28;20045;-93
2022/10/23 11:04:23;;;;;;;1.60;0.30;;;;;;;14.64;100.00;98455.28;5009388;28;20041;-92
2022/10/23 11:06:54;;;;;;;0.90;0.20;;;;;;;14.78;100.00;98455.94;4974167;28;20034;-93
2022/10/23 11:09:27;;;;;;;4.70;0.57;;;;;;;14.86;100.00;98449.53;5008091;28;20034;-92
2022/10/23 11:12:57;;;;;;;2.47;0.20;;;;;;;14.98;100.00;98455.78;4973745;28;20490;-91
2022/10/23 12:11:46;;;;;;;9.98;1.42;;;;;;;15.03;100.00;98382.44;5016289;28;20047;-90
2022/10/23 12:14:37;;;;;;;10.65;1.40;;;;;;;14.93;100.00;98388.31;5027970;28;20043;-91
2022/10/23 12:18:26;;;;;;;6.35;0.77;;;;;;;14.85;100.00;98398.22;5014663;28;20054;-93
2022/10/23 12:21:32;;;;;;;7.80;1.05;;;;;;;14.80;100.00;98398.06;4901201;29;20086;-92
2022/10/23 13:15:14;;;;;;;22.33;2.78;;;;;;;16.29;100.00;98355.13;5029465;28;20046;-91
2022/10/23 13:47:30;;;;;;;15.23;2.33;;;;;;;16.53;100.00;98321.22;4990492;28;20038;-88
2022/10/23 13:51:27;;;;;;;;;;;;;;;;;;;;;
2022/10/23 14:23:49;;;;;;;15.43;2.63;;;;;;;16.97;100.00;98278.03;5026437;28;20087;-88
2022/10/23 14:26:29;;;;;;;14.43;2.20;;;;;;;16.95;100.00;98282.78;5028681;28;20030;-90
2022/10/23 14:29:39;;;;;;;11.57;1.90;;;;;;;16.89;100.00;98291.75;4993870;28;20052;-90
2022/10/23 14:35:50;;;;;;;13.90;2.05;;;;;;;16.63;100.00;98279.81;5011330;28;20050;-89
2022/10/23 14:38:32;;;;;;;19.73;2.38;;;;;;;16.56;100.00;98286.06;5006380;28;20045;-89
2022/10/23 14:41:42;;;;;;;12.73;2.10;;;;;;;16.44;100.00;98298.63;4984886;28;20059;-90
2022/10/23 14:44:26;;;;;;;15.25;2.47;;;;;;;16.31;100.00;98284.53;4980117;28;20049;-88
2022/10/23 14:47:52;;;;;;;19.88;3.30;;;;;;;16.26;100.00;98291.63;4986123;28;22008;-89
2022/10/23 14:51:26;;;;;;;18.73;2.67;;;;;;;16.13;100.00;98290.84;4984572;28;20038;-88
2022/10/23 14:54:05;;;;;;;12.45;2.00;;;;;;;16.06;100.00;98284.81;4987893;28;20121;-91
2022/10/23 14:57:12;;;;;;;20.30;2.95;;;;;;;15.95;100.00;98291.75;4995740;28;20046;-91
2022/10/23 14:59:47;;;;;;;18.35;3.17;;;;;;;15.85;100.00;98285.16;5012869;28;20034;-89
2022/10/23 15:02:16;;;;;;;11.98;2.20;;;;;;;15.82;100.00;98290.13;4986502;28;20034;-89
2022/10/23 15:04:46;;;;;;;15.65;2.47;;;;;;;15.78;100.00;98286.31;5002669;28;20120;-90
2022/10/23 15:07:31;;;;;;;15.00;2.85;;;;;;;15.75;100.00;98271.63;5017235;28;20046;-90
2022/10/23 15:10:10;;;;;;;21.60;2.83;;;;;;;15.77;100.00;98269.50;4967160;28;20114;-90
2022/10/23 15:12:51;;;;;;;13.65;2.47;;;;;;;15.78;100.00;98270.34;4988728;28;20034;-91
2022/10/23 15:15:22;;;;;;;16.98;2.83;;;;;;;15.79;100.00;98277.28;4974927;28;20096;-89
2022/10/23 15:18:25;;;;;;;14.45;2.55;;;;;;;15.77;100.00;98277.50;5001244;28;20031;-90
2022/10/23 15:21:20;;;;;;;15.45;2.30;;;;;;;15.81;100.00;98278.69;4943192;28;20098;-90
2022/10/23 15:23:49;;;;;;;9.82;2.30;;;;;;;15.75;100.00;98267.09;4954617;28;20541;-90
2022/10/23 15:26:21;;;;;;;19.80;2.22;;;;;;;15.72;100.00;98277.38;4936759;28;20074;-90
2022/10/23 15:29:00;;;;;;;17.65;2.55;;;;;;;15.68;100.00;98268.25;4940004;28;20054;-90
2022/10/23 15:31:28;;;;;;;18.17;2.47;;;;;;;15.61;100.00;98271.84;4936561;28;20051;-90
2022/10/23 15:33:57;;;;;;;15.55;2.47;;;;;;;15.57;100.00;98276.00;4946308;29;20038;-89
2022/10/23 15:36:25;;;;;;;22.98;2.67;;;;;;;15.50;100.00;98262.00;4949991;28;20526;-89
2022/10/23 15:38:53;;;;;;;18.80;2.95;;;;;;;15.49;100.00;98269.19;4939434;28;20049;-90
2022/10/23 15:41:27;;;;;;;19.60;3.30;;;;;;;15.52;100.00;98272.41;4940905;28;20063;-88
2022/10/23 15:43:55;;;;;;;16.58;2.45;;;;;;;15.47;100.00;98255.28;4956824;28;20031;-90
2022/10/23 15:50:46;;;;;;;15.17;2.27;;;;;;;15.41;100.00;98253.53;4974350;28;20033;-88